createdAt,value
2023-02-08T00:01:34.936Z,2.16
2023-02-08T00:04:03.169Z,2.20
2023-02-08T00:06:31.669Z,2.17
2023-02-08T00:09:01.265Z,2.16
2023-02-08T00:11:29.404Z,2.18
2023-02-08T00:13:57.525Z,2.10
2023-02-08T00:16:27.141Z,2.18
2023-02-08T00:18:56.148Z,2.10
2023-02-08T00:21:24.178Z,1.88
2023-02-08T00:23:52.485Z,2.01
2023-02-08T00:26:20.523Z,1.87
2023-02-08T00:28:48.699Z,1.92
2023-02-08T00:31:19.071Z,1.94
2023-02-08T00:33:48.784Z,1.96
2023-02-08T00:36:16.885Z,1.89
2023-02-08T00:38:44.895Z,1.88
2023-02-08T00:41:13.118Z,1.87
2023-02-08T00:43:41.205Z,1.76
2023-02-08T00:46:10.824Z,1.76
2023-02-08T00:48:38.886Z,1.83
2023-02-08T00:51:10.736Z,1.79
2023-02-08T00:53:41.236Z,1.75
2023-02-08T00:56:10.575Z,1.70
2023-02-08T00:58:39.384Z,1.78
2023-02-08T01:01:08.715Z,1.74
2023-02-08T01:03:40.727Z,1.71
2023-02-08T01:06:13.944Z,1.76
2023-02-08T01:08:41.980Z,1.72
2023-02-08T01:11:13.040Z,1.68
2023-02-08T01:13:42.073Z,1.66
2023-02-08T01:16:13.705Z,1.70
2023-02-08T01:18:44.241Z,1.75
2023-02-08T01:21:18.086Z,1.67
2023-02-08T01:23:47.009Z,1.65
2023-02-08T01:26:17.200Z,1.58
2023-02-08T01:28:46.877Z,1.52
2023-02-08T01:31:20.498Z,1.54
2023-02-08T01:33:49.365Z,1.58
2023-02-08T01:36:19.002Z,1.54
2023-02-08T01:38:49.056Z,1.41
2023-02-08T01:41:20.652Z,1.47
2023-02-08T01:44:09.165Z,1.52
2023-02-08T01:46:39.532Z,1.48
2023-02-08T01:49:12.632Z,1.46
2023-02-08T01:51:46.642Z,1.45
2023-02-08T01:54:17.572Z,1.45
2023-02-08T01:56:48.158Z,1.38
2023-02-08T01:59:22.280Z,1.35
2023-02-08T02:01:53.511Z,1.38
2023-02-08T02:04:22.447Z,1.31
2023-02-08T02:06:57.896Z,1.32
2023-02-08T02:09:32.478Z,1.31
2023-02-08T02:12:02.034Z,1.17
2023-02-08T02:14:30.824Z,1.16
2023-02-08T02:17:01.657Z,1.17
2023-02-08T02:19:41.406Z,1.17
2023-02-08T02:22:40.734Z,1.11
2023-02-08T02:25:47.779Z,1.09
2023-02-08T02:29:06.187Z,1.04
2023-02-08T02:32:00.426Z,1.03
2023-02-08T02:34:41.862Z,0.97
2023-02-08T02:37:24.743Z,0.95
2023-02-08T02:40:08.361Z,0.94
2023-02-08T02:43:15.027Z,0.89
2023-02-08T02:45:50.687Z,0.83
2023-02-08T02:48:31.785Z,0.95
2023-02-08T02:51:07.054Z,0.87
2023-02-08T02:53:44.323Z,0.78
2023-02-08T02:56:17.786Z,0.76
2023-02-08T02:58:46.729Z,0.65
2023-02-08T03:01:15.137Z,0.67
2023-02-08T03:03:44.523Z,0.66
2023-02-08T03:06:23.479Z,0.73
2023-02-08T03:09:09.544Z,0.75
2023-02-08T03:11:46.805Z,0.70
2023-02-08T03:14:31.121Z,0.77
2023-02-08T03:17:17.826Z,0.66
2023-02-08T03:19:55.749Z,0.66
2023-02-08T03:22:32.394Z,0.65
2023-02-08T03:25:07.154Z,0.57
2023-02-08T03:27:41.367Z,0.63
2023-02-08T03:30:16.954Z,0.57
2023-02-08T03:32:48.926Z,0.49
2023-02-08T03:35:24.105Z,0.54
2023-02-08T03:37:59.465Z,0.54
2023-02-08T03:40:32.931Z,0.54
2023-02-08T03:43:08.824Z,0.50
2023-02-08T03:45:43.052Z,0.45
2023-02-08T03:48:15.363Z,0.42
2023-02-08T03:50:50.217Z,0.40
2023-02-08T03:53:22.265Z,0.50
2023-02-08T03:55:55.902Z,0.52
2023-02-08T03:58:30.190Z,0.46
2023-02-08T04:01:04.897Z,0.44
2023-02-08T04:03:34.957Z,0.46
2023-02-08T04:06:04.693Z,0.58
2023-02-08T04:08:33.029Z,0.53
2023-02-08T04:11:01.226Z,0.47
2023-02-08T04:13:29.274Z,0.46
2023-02-08T04:15:57.806Z,0.39
2023-02-08T04:18:25.798Z,0.41
2023-02-08T04:20:53.856Z,0.44
2023-02-08T04:23:23.240Z,0.29
2023-02-08T04:25:51.344Z,0.31
2023-02-08T04:28:19.861Z,0.35
2023-02-08T04:30:48.128Z,0.29
2023-02-08T04:33:16.543Z,0.28
2023-02-08T04:35:44.936Z,0.32
2023-02-08T04:38:12.906Z,0.25
2023-02-08T04:40:42.542Z,0.26
2023-02-08T04:43:10.668Z,0.22
2023-02-08T04:45:38.767Z,0.23
2023-02-08T04:48:07.376Z,0.18
2023-02-08T04:50:36.061Z,0.22
2023-02-08T04:53:04.483Z,0.11
2023-02-08T04:55:32.585Z,0.24
2023-02-08T04:58:02.055Z,0.19
2023-02-08T05:00:30.242Z,0.19
2023-02-08T05:02:59.922Z,0.17
2023-02-08T05:05:28.505Z,0.25
2023-02-08T05:07:56.642Z,0.23
2023-02-08T05:10:24.891Z,0.23
2023-02-08T05:12:53.082Z,0.26
2023-02-08T05:15:22.869Z,0.25
2023-02-08T05:17:52.038Z,0.15
2023-02-08T05:20:21.504Z,0.20
2023-02-08T05:22:49.544Z,0.29
2023-02-08T05:25:18.038Z,0.09
2023-02-08T05:27:46.170Z,0.07
2023-02-08T05:30:14.740Z,0.09
2023-02-08T05:32:44.147Z,0.08
2023-02-08T05:35:12.156Z,0.06
2023-02-08T05:37:40.175Z,0.04
2023-02-08T05:40:10.414Z,0.03
2023-02-08T05:42:38.577Z,-0.01
2023-02-08T05:45:07.721Z,-0.03
2023-02-08T05:47:35.730Z,0.06
2023-02-08T05:50:06.390Z,0.03
2023-02-08T05:52:34.481Z,0.05
2023-02-08T05:55:02.519Z,0.07
2023-02-08T05:57:31.928Z,0.09
2023-02-08T06:00:00.752Z,0.01
2023-02-08T06:02:28.794Z,0.07
2023-02-08T06:04:56.936Z,0.10
2023-02-08T06:07:26.448Z,-0.03
2023-02-08T06:09:54.524Z,0.00
2023-02-08T06:12:22.515Z,-0.14
2023-02-08T06:14:50.505Z,-0.05
2023-02-08T06:17:18.493Z,-0.07
2023-02-08T06:19:46.522Z,-0.12
2023-02-08T06:22:14.617Z,-0.08
2023-02-08T06:24:44.014Z,0.04
2023-02-08T06:27:12.063Z,-0.03
2023-02-08T06:29:40.129Z,-0.03
2023-02-08T06:32:08.257Z,-0.07
2023-02-08T06:34:36.313Z,-0.02
2023-02-08T06:37:05.673Z,-0.13
2023-02-08T06:39:34.081Z,-0.13
2023-02-08T06:42:03.604Z,-0.01
2023-02-08T06:44:31.942Z,-0.09
2023-02-08T06:47:00.064Z,-0.14
2023-02-08T06:49:28.284Z,-0.06
2023-02-08T06:51:56.564Z,-0.01
2023-02-08T06:54:24.612Z,0.04
2023-02-08T06:56:54.517Z,0.03
2023-02-08T06:59:24.080Z,0.00
2023-02-08T07:01:52.063Z,-0.02
2023-02-08T07:04:20.034Z,-0.07
2023-02-08T07:06:49.860Z,-0.01
2023-02-08T07:09:18.842Z,0.07
2023-02-08T07:11:46.944Z,0.08
2023-02-08T07:14:16.146Z,-0.01
2023-02-08T07:16:45.642Z,0.09
2023-02-08T07:19:13.869Z,0.17
2023-02-08T07:21:41.870Z,0.22
2023-02-08T07:24:10.065Z,0.32
2023-02-08T07:26:38.140Z,0.34
2023-02-08T07:29:06.584Z,0.46
2023-02-08T07:31:34.682Z,0.57
2023-02-08T07:34:04.195Z,0.69
2023-02-08T07:36:32.225Z,0.70
2023-02-08T07:39:00.197Z,0.72
2023-02-08T07:41:28.176Z,0.53
2023-02-08T07:43:56.239Z,0.66
2023-02-08T07:46:24.385Z,0.71
2023-02-08T07:48:53.504Z,0.70
2023-02-08T07:51:23.195Z,0.61
2023-02-08T07:53:51.845Z,0.82
2023-02-08T07:56:20.315Z,1.12
2023-02-08T07:58:48.333Z,1.27
2023-02-08T08:01:22.207Z,1.47
2023-02-08T08:03:51.322Z,1.83
2023-02-08T08:06:20.033Z,2.04
2023-02-08T08:08:49.898Z,2.07
2023-02-08T08:11:20.007Z,2.06
2023-02-08T08:13:48.384Z,1.77
2023-02-08T08:16:16.738Z,1.63
2023-02-08T08:18:44.879Z,1.56
2023-02-08T08:21:13.763Z,1.57
2023-02-08T08:23:41.879Z,1.66
2023-02-08T08:26:15.064Z,1.67
2023-02-08T08:28:43.788Z,1.62
2023-02-08T08:31:13.028Z,1.75
2023-02-08T08:33:41.268Z,1.90
2023-02-08T08:36:10.335Z,2.03
2023-02-08T08:38:38.826Z,1.89
2023-02-08T08:41:11.925Z,1.87
2023-02-08T08:43:40.082Z,2.05
2023-02-08T08:46:09.025Z,1.95
2023-02-08T08:48:39.376Z,2.08
2023-02-08T08:51:08.656Z,2.01
2023-02-08T08:53:37.068Z,2.06
2023-02-08T08:56:06.419Z,2.12
2023-02-08T08:58:35.878Z,2.18
2023-02-08T09:01:04.154Z,2.34
2023-02-08T09:03:32.219Z,2.42
2023-02-08T09:06:00.244Z,2.41
2023-02-08T09:08:29.211Z,2.26
2023-02-08T09:10:57.263Z,2.52
2023-02-08T09:13:25.567Z,2.61
2023-02-08T09:15:55.092Z,2.70
2023-02-08T09:18:23.121Z,2.73
2023-02-08T09:20:51.149Z,2.77
2023-02-08T09:23:19.207Z,2.82
2023-02-08T09:25:49.112Z,2.95
2023-02-08T09:28:18.190Z,3.01
2023-02-08T09:30:49.916Z,3.07
2023-02-08T09:33:19.328Z,3.06
2023-02-08T09:35:49.534Z,3.17
2023-02-08T09:38:17.608Z,3.15
2023-02-08T09:41:03.108Z,3.18
2023-02-08T09:43:43.338Z,3.32
2023-02-08T09:46:17.606Z,3.33
2023-02-08T09:48:49.127Z,3.33
2023-02-08T09:51:29.038Z,3.58
2023-02-08T09:54:04.644Z,3.55
2023-02-08T09:56:40.166Z,3.63
2023-02-08T09:59:17.701Z,3.73
2023-02-08T10:01:47.361Z,3.71
2023-02-08T10:04:26.459Z,3.79
2023-02-08T10:06:54.700Z,3.84
2023-02-08T10:09:27.875Z,4.01
2023-02-08T10:12:12.253Z,4.18
2023-02-08T10:15:00.980Z,4.18
2023-02-08T10:17:53.202Z,4.28
2023-02-08T10:20:39.064Z,4.35
2023-02-08T10:23:28.728Z,4.56
2023-02-08T10:26:11.051Z,4.69
2023-02-08T10:28:58.721Z,4.64
2023-02-08T10:31:43.106Z,4.52
2023-02-08T10:34:21.313Z,4.61
2023-02-08T10:36:50.823Z,4.68
2023-02-08T10:39:25.234Z,4.77
2023-02-08T10:41:54.002Z,4.70
2023-02-08T10:44:30.930Z,4.87
2023-02-08T10:47:14.173Z,4.81
2023-02-08T10:49:51.483Z,4.91
2023-02-08T10:52:21.111Z,4.90
2023-02-08T10:54:49.154Z,5.09
2023-02-08T10:57:23.661Z,5.06
2023-02-08T10:59:55.768Z,5.08
2023-02-08T11:02:26.750Z,4.98
2023-02-08T11:05:04.184Z,4.94
2023-02-08T11:07:36.512Z,4.96
2023-02-08T11:10:26.431Z,4.95
2023-02-08T11:13:00.577Z,5.01
2023-02-08T11:15:34.956Z,5.19
2023-02-08T11:18:05.089Z,5.22
2023-02-08T11:20:37.768Z,5.20
2023-02-08T11:23:23.392Z,5.27
2023-02-08T11:25:52.378Z,5.40
2023-02-08T11:28:31.460Z,5.44
2023-02-08T11:31:03.226Z,5.46
2023-02-08T11:33:31.708Z,5.38
2023-02-08T11:36:07.445Z,5.41
2023-02-08T11:38:42.334Z,5.56
2023-02-08T11:41:18.948Z,5.62
2023-02-08T11:44:00.474Z,5.73
2023-02-08T11:46:30.764Z,5.84
2023-02-08T11:48:58.932Z,5.98
2023-02-08T11:51:32.037Z,6.00
2023-02-08T11:54:02.345Z,6.05
2023-02-08T11:56:33.303Z,5.92
2023-02-08T11:59:18.221Z,5.93
2023-02-08T12:01:46.632Z,5.88
2023-02-08T12:04:17.964Z,5.94
2023-02-08T12:07:22.013Z,5.91
2023-02-08T12:10:29.131Z,6.06
2023-02-08T12:13:18.235Z,6.08
2023-02-08T12:16:01.828Z,5.84
2023-02-08T12:19:06.600Z,5.95
2023-02-08T12:21:43.083Z,6.08
2023-02-08T12:24:20.924Z,6.08
2023-02-08T12:27:16.974Z,6.04
2023-02-08T12:29:52.794Z,6.22
2023-02-08T12:32:38.627Z,6.26
2023-02-08T12:35:45.579Z,6.29
2023-02-08T12:38:49.625Z,6.29
2023-02-08T12:41:26.561Z,6.25
2023-02-08T12:44:07.992Z,6.34
2023-02-08T12:46:52.868Z,6.41
2023-02-08T12:49:58.573Z,6.41
2023-02-08T12:52:38.025Z,6.44
2023-02-08T12:55:19.346Z,6.59
2023-02-08T12:57:53.943Z,6.60
2023-02-08T13:00:29.129Z,6.76
2023-02-08T13:03:06.978Z,6.67
2023-02-08T13:05:42.900Z,6.74
2023-02-08T13:08:33.117Z,6.67
2023-02-08T13:11:19.029Z,6.71
2023-02-08T13:13:57.939Z,6.72
2023-02-08T13:16:34.686Z,6.72
2023-02-08T13:19:22.867Z,6.97
2023-02-08T13:21:54.106Z,6.87
2023-02-08T13:24:34.171Z,6.86
2023-02-08T13:27:02.350Z,6.90
2023-02-08T13:29:33.125Z,6.95
2023-02-08T13:32:09.175Z,7.01
2023-02-08T13:34:42.109Z,6.96
2023-02-08T13:37:25.729Z,6.93
2023-02-08T13:40:03.238Z,7.04
2023-02-08T13:42:39.579Z,7.05
2023-02-08T13:45:10.737Z,7.05
2023-02-08T13:47:47.047Z,7.27
2023-02-08T13:50:50.608Z,7.17
2023-02-08T13:53:39.982Z,7.15
2023-02-08T13:56:11.667Z,7.15
2023-02-08T13:59:01.244Z,7.20
2023-02-08T14:01:30.608Z,7.31
2023-02-08T14:04:36.347Z,7.33
2023-02-08T14:07:20.783Z,7.33
2023-02-08T14:10:10.069Z,7.35
2023-02-08T14:12:46.864Z,7.22
2023-02-08T14:15:43.404Z,7.36
2023-02-08T14:18:26.595Z,7.32
2023-02-08T14:21:04.482Z,7.31
2023-02-08T14:23:40.225Z,7.36
2023-02-08T14:26:20.682Z,7.34
2023-02-08T14:28:55.393Z,7.21
2023-02-08T14:31:24.060Z,7.15
2023-02-08T14:33:55.996Z,7.13
2023-02-08T14:36:30.964Z,7.06
2023-02-08T14:39:28.965Z,7.16
2023-02-08T14:42:01.509Z,7.09
2023-02-08T14:45:06.143Z,6.98
2023-02-08T14:48:21.013Z,7.08
2023-02-08T14:51:00.203Z,7.07
2023-02-08T14:53:41.299Z,7.08
2023-02-08T14:56:20.441Z,7.11
2023-02-08T14:59:16.904Z,7.09
2023-02-08T15:01:48.587Z,6.89
2023-02-08T15:04:19.096Z,6.80
2023-02-08T15:07:20.756Z,6.86
2023-02-08T15:09:50.380Z,6.85
2023-02-08T15:12:27.563Z,6.86
2023-02-08T15:14:59.108Z,6.79
2023-02-08T15:17:35.234Z,6.71
2023-02-08T15:20:18.050Z,6.85
2023-02-08T15:22:46.471Z,6.88
2023-02-08T15:25:29.901Z,6.72
2023-02-08T15:28:00.642Z,6.74
2023-02-08T15:30:35.544Z,6.71
2023-02-08T15:33:13.682Z,6.58
2023-02-08T15:35:44.440Z,6.51
2023-02-08T15:38:19.832Z,6.59
2023-02-08T15:41:07.243Z,6.48
2023-02-08T15:43:36.781Z,6.39
2023-02-08T15:46:07.745Z,6.33
2023-02-08T15:48:39.550Z,6.41
2023-02-08T15:51:11.358Z,6.27
2023-02-08T15:53:42.785Z,6.32
2023-02-08T15:56:30.435Z,6.25
2023-02-08T15:59:05.335Z,6.09
2023-02-08T16:01:34.395Z,6.16
2023-02-08T16:04:08.315Z,6.10
2023-02-08T16:06:45.882Z,6.00
2023-02-08T16:09:19.951Z,6.04
2023-02-08T16:11:51.064Z,5.84
2023-02-08T16:14:27.873Z,5.75
2023-02-08T16:16:59.420Z,5.94
2023-02-08T16:19:29.909Z,5.80
2023-02-08T16:22:26.798Z,5.84
2023-02-08T16:24:55.863Z,5.77
2023-02-08T16:27:28.313Z,5.74
2023-02-08T16:29:56.703Z,5.90
2023-02-08T16:32:30.066Z,6.05
2023-02-08T16:34:58.403Z,6.12
2023-02-08T16:37:31.001Z,6.19
2023-02-08T16:40:03.392Z,6.17
2023-02-08T16:42:35.759Z,6.16
2023-02-08T16:45:24.788Z,6.15
2023-02-08T16:47:56.741Z,6.12
2023-02-08T16:50:27.236Z,6.09
2023-02-08T16:53:01.353Z,5.95
2023-02-08T16:55:33.796Z,5.98
2023-02-08T16:58:02.084Z,6.00
2023-02-08T17:00:32.913Z,5.95
2023-02-08T17:03:01.365Z,5.88
2023-02-08T17:05:32.427Z,5.81
2023-02-08T17:08:04.081Z,5.82
2023-02-08T17:10:34.016Z,5.77
2023-02-08T17:13:19.306Z,5.68
2023-02-08T17:15:50.414Z,5.61
2023-02-08T17:18:19.108Z,5.67
2023-02-08T17:20:48.344Z,5.61
2023-02-08T17:23:18.142Z,5.50
2023-02-08T17:25:46.659Z,5.47
2023-02-08T17:28:19.518Z,5.54
2023-02-08T17:30:50.069Z,5.56
2023-02-08T17:33:20.886Z,5.54
2023-02-08T17:35:51.017Z,5.51
2023-02-08T17:38:21.904Z,5.20
2023-02-08T17:40:50.028Z,5.01
2023-02-08T17:43:18.976Z,5.03
2023-02-08T17:45:47.466Z,5.20
2023-02-08T17:48:15.881Z,5.14
2023-02-08T17:50:50.760Z,5.15
2023-02-08T17:53:21.034Z,5.11
2023-02-08T17:55:49.778Z,5.09
2023-02-08T17:58:18.350Z,5.08
2023-02-08T18:00:47.111Z,5.06
2023-02-08T18:03:17.230Z,4.99
2023-02-08T18:05:45.993Z,4.94
2023-02-08T18:08:14.635Z,4.88
2023-02-08T18:10:44.497Z,4.88
2023-02-08T18:13:13.357Z,4.85
2023-02-08T18:15:42.355Z,4.78
2023-02-08T18:18:10.849Z,4.76
2023-02-08T18:20:43.363Z,4.69
2023-02-08T18:23:11.376Z,4.71
2023-02-08T18:25:40.979Z,4.69
2023-02-08T18:28:14.569Z,4.64
2023-02-08T18:30:43.919Z,4.65
2023-02-08T18:33:13.760Z,4.67
2023-02-08T18:35:42.711Z,4.56
2023-02-08T18:38:11.242Z,4.55
2023-02-08T18:40:41.571Z,4.61
2023-02-08T18:43:11.649Z,4.56
2023-02-08T18:45:40.039Z,4.52
2023-02-08T18:48:08.302Z,4.53
2023-02-08T18:50:37.167Z,4.42
2023-02-08T18:53:06.806Z,4.46
2023-02-08T18:55:35.199Z,4.43
2023-02-08T18:58:04.327Z,4.42
2023-02-08T19:00:34.097Z,4.41
2023-02-08T19:03:09.776Z,4.38
2023-02-08T19:05:39.018Z,4.44
2023-02-08T19:08:11.363Z,4.43
2023-02-08T19:10:41.204Z,4.41
2023-02-08T19:13:09.680Z,4.26
2023-02-08T19:15:43.293Z,4.34
2023-02-08T19:18:11.761Z,4.31
2023-02-08T19:20:40.207Z,4.25
2023-02-08T19:23:08.667Z,4.27
2023-02-08T19:25:39.691Z,4.23
2023-02-08T19:28:08.688Z,4.20
2023-02-08T19:30:37.218Z,4.17
2023-02-08T19:33:06.879Z,4.14
2023-02-08T19:35:39.179Z,4.14
2023-02-08T19:38:09.145Z,4.09
2023-02-08T19:40:37.495Z,4.08
2023-02-08T19:43:05.773Z,4.12
2023-02-08T19:45:36.222Z,4.15
2023-02-08T19:48:06.843Z,4.05
2023-02-08T19:50:35.987Z,3.96
2023-02-08T19:53:04.429Z,4.01
2023-02-08T19:55:32.781Z,3.96
2023-02-08T19:58:01.046Z,3.95
2023-02-08T20:00:29.340Z,3.97
2023-02-08T20:02:57.585Z,3.99
2023-02-08T20:05:27.293Z,4.03
2023-02-08T20:07:55.789Z,4.05
2023-02-08T20:10:24.084Z,4.05
2023-02-08T20:12:53.361Z,4.16
2023-02-08T20:15:21.794Z,4.09
2023-02-08T20:17:50.110Z,4.03
2023-02-08T20:20:19.660Z,3.98
2023-02-08T20:22:49.014Z,3.92
2023-02-08T20:25:17.405Z,3.89
2023-02-08T20:27:45.661Z,3.83
2023-02-08T20:30:17.192Z,3.80
2023-02-08T20:32:47.149Z,3.82
2023-02-08T20:35:15.743Z,3.87
2023-02-08T20:37:44.698Z,3.79
2023-02-08T20:40:16.028Z,3.69
2023-02-08T20:42:44.658Z,3.68
2023-02-08T20:45:14.530Z,3.64
2023-02-08T20:47:46.762Z,3.54
2023-02-08T20:50:19.080Z,3.52
2023-02-08T20:52:48.917Z,3.44
2023-02-08T20:55:18.637Z,3.42
2023-02-08T20:57:46.655Z,3.39
2023-02-08T21:00:16.170Z,3.46
2023-02-08T21:02:44.378Z,3.45
2023-02-08T21:05:12.393Z,3.39
2023-02-08T21:07:41.023Z,3.43
2023-02-08T21:10:09.845Z,3.48
2023-02-08T21:12:39.407Z,3.51
2023-02-08T21:15:10.324Z,3.40
2023-02-08T21:17:40.842Z,3.43
2023-02-08T21:20:11.957Z,3.45
2023-02-08T21:22:40.072Z,3.38
2023-02-08T21:25:09.333Z,3.22
2023-02-08T21:27:39.080Z,3.19
2023-02-08T21:30:10.049Z,3.21
2023-02-08T21:32:38.268Z,3.14
2023-02-08T21:35:07.581Z,3.05
2023-02-08T21:37:35.951Z,2.99
2023-02-08T21:40:04.372Z,2.95
2023-02-08T21:42:33.859Z,2.79
2023-02-08T21:45:03.411Z,2.90
2023-02-08T21:47:31.592Z,2.98
2023-02-08T21:50:17.257Z,3.00
2023-02-08T21:53:02.856Z,2.94
2023-02-08T21:55:31.926Z,2.87
2023-02-08T21:58:00.333Z,2.85
2023-02-08T22:00:30.318Z,2.83
2023-02-08T22:02:58.557Z,2.80
2023-02-08T22:05:44.447Z,2.87
2023-02-08T22:08:14.277Z,2.84
2023-02-08T22:10:50.182Z,2.83
2023-02-08T22:13:24.994Z,2.84
2023-02-08T22:15:54.760Z,2.72
2023-02-08T22:18:23.055Z,2.60
2023-02-08T22:20:52.735Z,2.66
2023-02-08T22:23:21.275Z,2.66
2023-02-08T22:25:49.495Z,2.61
2023-02-08T22:28:17.768Z,2.46
2023-02-08T22:30:49.227Z,2.51
2023-02-08T22:33:18.930Z,2.48
2023-02-08T22:35:47.110Z,2.42
2023-02-08T22:38:15.276Z,2.48
2023-02-08T22:40:43.909Z,2.50
2023-02-08T22:43:12.367Z,2.43
2023-02-08T22:45:42.368Z,2.39
2023-02-08T22:48:10.943Z,2.30
2023-02-08T22:50:40.529Z,2.31
2023-02-08T22:53:08.771Z,2.31
2023-02-08T22:55:36.994Z,2.34
2023-02-08T22:58:05.232Z,2.34
2023-02-08T23:00:33.544Z,2.35
2023-02-08T23:03:01.888Z,2.30
2023-02-08T23:05:30.128Z,2.26
2023-02-08T23:07:59.696Z,2.27
2023-02-08T23:10:27.946Z,2.18
2023-02-08T23:12:56.197Z,2.08
2023-02-08T23:15:24.498Z,2.06
2023-02-08T23:17:52.961Z,2.01
2023-02-08T23:20:21.373Z,2.01
2023-02-08T23:22:49.594Z,1.98
2023-02-08T23:25:20.039Z,1.88
2023-02-08T23:27:48.720Z,1.83
2023-02-08T23:30:17.244Z,1.81
2023-02-08T23:32:45.564Z,1.71
2023-02-08T23:35:13.844Z,1.64
2023-02-08T23:37:42.143Z,1.67
2023-02-08T23:40:12.044Z,1.63
2023-02-08T23:42:41.728Z,1.77
2023-02-08T23:45:11.242Z,1.74
2023-02-08T23:47:40.349Z,1.70
2023-02-08T23:50:11.093Z,1.62
2023-02-08T23:52:39.427Z,1.60
2023-02-08T23:55:10.016Z,1.58
2023-02-08T23:57:39.439Z,1.50
